Data for 06/11/2005

Time Sea-Level Adjusted Pressure Absolute Pressure Temperature Relative Humidity Dew Point   
(mb) (inHg) (mb) (inHg) (C) (F) (%) (C) (F)
00:05 1013 29.91 842 24.86 8.4 47.1 71 3.4 38.2
00:10 1013 29.91 843 24.89 8.5 47.3 70 3.4 38.1
00:15 1013 29.91 842 24.86 8.6 47.4 70 3.4 38.1
00:20 1013 29.91 843 24.89 8.7 47.7 68 3.1 37.6
00:25 1013 29.91 843 24.89 8.9 48.1 67 3.2 37.8
00:30 1013 29.91 843 24.89 9 48.2 67 3.3 37.9
00:35 1013 29.91 843 24.89 8.8 47.9 67 3.2 37.7
00:40 1013 29.91 843 24.89 8.8 47.8 67 3.1 37.6
00:45 1013 29.91 843 24.89 8.7 47.7 67 3 37.4
00:50 1013 29.91 843 24.89 8.9 48 66 2.9 37.3
00:55 1014 29.94 843 24.89 9.1 48.3 64 2.7 36.9
01:00 1014 29.94 843 24.89 9 48.2 69 3.6 38.5
01:05 1014 29.94 843 24.89 8.5 47.2 71 3.6 38.5
01:10 1014 29.94 843 24.89 8.3 47 73 3.8 38.8
01:15 1014 29.94 843 24.89 8.4 47.2 71 3.5 38.2
01:20 1014 29.94 843 24.89 8.4 47 72 3.7 38.6
01:25 1014 29.94 843 24.89 8.2 46.7 74 3.7 38.7
01:30 1014 29.94 843 24.89 8 46.4 75 3.8 38.9
01:35 1014 29.94 843 24.89 7.8 46.1 74 3.4 38.2
01:40 1014 29.94 843 24.89 7.8 46 75 3.7 38.7
01:45 1014 29.94 843 24.89 7.6 45.7 75 3.4 38.2
01:50 1014 29.94 843 24.89 7.7 45.8 74 3.4 38
01:55 1014 29.94 843 24.89 7.8 46 73 3.4 38
02:00 1014 29.94 843 24.89 7.9 46.2 73 3.3 38
02:05 1014 29.94 843 24.89 7.9 46.1 72 3.1 37.7
02:10 1014 29.94 843 24.89 7.6 45.7 74 3.4 38.1
02:15 1014 29.94 843 24.89 7.5 45.5 75 3.4 38.2
02:20 1014 29.94 843 24.89 7.4 45.4 76 3.5 38.2
02:25 1014 29.94 843 24.89 7.3 45.1 76 3.3 38
02:30 1014 29.94 843 24.89 7.1 44.7 77 3.3 37.9
02:35 1014 29.94 843 24.89 7.1 44.7 77 3.3 38
02:40 1014 29.94 843 24.89 7.3 45.2 76 3.3 38
02:45 1014 29.94 843 24.89 7.5 45.6 75 3.4 38.1
02:50 1014 29.94 843 24.89 7.5 45.5 75 3.3 38
02:55 1014 29.94 843 24.89 7.5 45.5 75 3.4 38.1
03:00 1014 29.94 843 24.89 7.5 45.6 75 3.4 38.2
03:05 1014 29.94 843 24.89 7.5 45.5 75 3.4 38.2
03:10 1014 29.94 843 24.89 7.7 45.8 75 3.5 38.3
03:15 1014 29.94 843 24.89 8.1 46.5 77 4.3 39.7
03:20 1014 29.94 843 24.89 8.4 47.1 76 4.5 40.1
03:25 1014 29.94 843 24.89 8.4 47.1 80 5.1 41.2
03:30 1013 29.91 843 24.89 8.9 48 75 4.6 40.3
03:35 1014 29.94 843 24.89 9.1 48.3 79 5.6 42
03:40 1014 29.94 843 24.89 8.9 47.9 76 4.8 40.7
03:45 1014 29.94 843 24.89 9.3 48.8 70 4.1 39.4
03:50 1014 29.94 843 24.89 9.3 48.8 80 6 42.8
03:55 1014 29.94 843 24.89 9 48.1 77 5.1 41.1
04:00 1014 29.94 843 24.89 8.6 47.6 81 5.5 41.9
04:05 1014 29.94 843 24.89 8.8 47.8 76 4.7 40.5
04:10 1014 29.94 843 24.89 9.2 48.5 77 5.4 41.8
04:15 1014 29.94 843 24.89 8.7 47.7 80 5.4 41.7
04:20 1014 29.94 843 24.89 8.6 47.4 83 5.8 42.5
04:25 1014 29.94 843 24.89 8.3 46.9 86 6.1 43
04:30 1014 29.94 843 24.89 7.9 46.1 90 6.3 43.3
04:35 1014 29.94 843 24.89 7.6 45.6 90 6 42.8
04:40 1014 29.94 843 24.89 7.5 45.6 90 6.1 42.9
04:45 1014 29.94 843 24.89 7.5 45.6 90 6 42.8
04:50 1014 29.94 843 24.89 7.5 45.5 89 5.8 42.4
04:55 1014 29.94 843 24.89 7.5 45.5 90 6 42.9
05:00 1013 29.91 843 24.89 7.4 45.3 89 5.8 42.4
05:05 1013 29.91 843 24.89 7.4 45.3 90 5.8 42.4
05:10 1013 29.91 843 24.89 7.2 45 89 5.6 42.1
05:15 1013 29.91 843 24.89 7.1 44.8 90 5.6 42.1
05:20 1013 29.91 843 24.89 7.1 44.8 89 5.4 41.7
05:25 1013 29.91 843 24.89 7.1 44.7 89 5.4 41.6
05:30 1013 29.91 843 24.89 7.2 44.9 87 5.2 41.4
05:35 1013 29.91 842 24.86 7.2 44.9 88 5.3 41.5
05:40 1013 29.91 842 24.86 7.2 44.9 87 5.2 41.3
05:45 1013 29.91 842 24.86 7.3 45.1 86 5.1 41.2
05:50 1013 29.91 842 24.86 7.2 44.9 87 5.2 41.4
05:55 1013 29.91 842 24.86 7.2 44.9 87 5.2 41.3
06:00 1013 29.91 842 24.86 7.3 45.1 86 5 41
06:05 1013 29.91 842 24.86 7.4 45.3 85 5 41
06:10 1013 29.91 842 24.86 7.4 45.4 85 5.1 41.2
06:15 1013 29.91 842 24.86 7.3 45.2 87 5.3 41.5
06:20 1013 29.91 842 24.86 7.2 44.9 86 5 41
06:25 1013 29.91 842 24.86 6.8 44.3 88 5 40.9
06:30 1013 29.91 842 24.86 6.7 44.1 88 4.8 40.7
06:35 1013 29.91 842 24.86 6.7 44 87 4.6 40.3
06:40 1013 29.91 842 24.86 6.8 44.2 86 4.6 40.3
06:45 1013 29.91 842 24.86 6.9 44.4 84 4.4 39.9
06:50 1013 29.91 842 24.86 7 44.7 84 4.5 40.1
06:55 1013 29.91 842 24.86 6.9 44.5 84 4.4 39.9
07:00 1013 29.91 842 24.86 7 44.6 86 4.8 40.6
07:05 1013 29.91 842 24.86 6.9 44.5 85 4.7 40.4
07:10 1013 29.91 842 24.86 7 44.6 85 4.7 40.5
07:15 1013 29.91 842 24.86 7.2 45 83 4.5 40.2
07:20 1013 29.91 842 24.86 7.7 45.9 82 4.8 40.6
07:25 1013 29.91 842 24.86 8 46.4 82 5.2 41.3
07:30 1013 29.91 842 24.86 8 46.3 83 5.3 41.6
07:35 1013 29.91 842 24.86 8.1 46.6 83 5.4 41.7
07:40 1013 29.91 842 24.86 8.2 46.8 82 5.4 41.7
07:45 1013 29.91 842 24.86 8.4 47.1 82 5.5 41.8
07:50 1013 29.91 842 24.86 8.4 47.1 82 5.4 41.8
07:55 1013 29.91 842 24.86 8.6 47.4 80 5.4 41.7
08:00 1013 29.91 842 24.86 8.7 47.6 81 5.6 42.1
08:05 1013 29.91 842 24.86 8.8 47.8 81 5.6 42.1
08:10 1013 29.91 842 24.86 8.9 48.1 78 5.4 41.7
08:15 1013 29.91 842 24.86 9 48.1 79 5.6 42.1
08:20 1013 29.91 842 24.86 9.1 48.4 80 5.8 42.4
08:25 1013 29.91 842 24.86 9.7 49.5 77 6 42.7
08:30 1013 29.91 842 24.86 10.1 50.1 77 6.2 43.2
08:35 1013 29.91 842 24.86 10.6 51.1 74 6.2 43.2
08:40 1013 29.91 842 24.86 10.9 51.5 73 6.2 43.1
08:45 1013 29.91 842 24.86 11.8 53.3 67 5.9 42.6
08:50 1013 29.91 842 24.86 12.4 54.3 67 6.4 43.5
08:55 1013 29.91 842 24.86 12.7 54.8 67 6.7 44.1
09:00 1013 29.91 842 24.86 13.1 55.6 62 6.1 42.9
09:05 1013 29.91 842 24.86 13.8 56.8 61 6.4 43.4
09:10 1013 29.91 842 24.86 14.1 57.3 59 6.3 43.4
09:15 1013 29.91 842 24.86 14.4 57.9 60 6.7 44
09:20 1013 29.91 842 24.86 14.6 58.3 61 7.3 45.1
09:25 1013 29.91 842 24.86 14.5 58 61 7.2 45
09:30 1013 29.91 842 24.86 13.7 56.6 66 7.4 45.3
09:35 1013 29.91 842 24.86 13.6 56.5 63 6.8 44.3
09:40 1013 29.91 842 24.86 14.8 58.6 57 6.4 43.5
09:45 1013 29.91 842 24.86 16.3 61.4 51 6.1 43.1
09:50 1013 29.91 842 24.86 16 60.8 57 7.7 45.8
09:55 1013 29.91 842 24.86 15 59 58 7 44.5
10:00 1013 29.91 842 24.86 15.8 60.4 53 6.4 43.5
10:05 1013 29.91 842 24.86 16.1 60.9 53 6.6 43.9
10:10 1012 29.88 842 24.86 15.1 59.2 56 6.6 43.8
10:15 1012 29.88 842 24.86 14.8 58.6 55 6 42.8
10:20 1012 29.88 842 24.86 15.7 60.2 50 5.3 41.5
10:25 1012 29.88 841 24.83 16.2 61.1 53 6.7 44
10:30 1012 29.88 841 24.83 16.1 60.9 51 6.1 43
10:35 1012 29.88 841 24.83 15.8 60.4 52 6 42.7
10:40 1012 29.88 841 24.83 15.5 59.9 46 4.1 39.3
10:45 1012 29.88 841 24.83 15 59 48 4.2 39.6
10:50 1012 29.88 841 24.83 16.3 61.4 46 4.8 40.6
10:55 1012 29.88 841 24.83 16.8 62.2 45 5 41.1
11:00 1012 29.88 841 24.83 16.7 62 46 5.2 41.4
11:05 1012 29.88 841 24.83 16.7 62 47 5.3 41.5
11:10 1012 29.88 841 24.83 16.4 61.5 49 5.9 42.6
11:15 1012 29.88 841 24.83 16.9 62.3 49 6.3 43.4
11:20 1012 29.88 841 24.83 16.7 62.1 47 5.5 41.9
11:25 1012 29.88 841 24.83 17.5 63.5 44 5.4 41.7
11:30 1012 29.88 841 24.83 17.6 63.7 41 4.4 40
11:35 1012 29.88 841 24.83 17.1 62.8 42 4.3 39.7
11:40 1012 29.88 841 24.83 17 62.6 41 3.6 38.6
11:45 1012 29.88 841 24.83 16.9 62.4 43 4.4 39.9
11:50 1012 29.88 841 24.83 17.7 63.9 43 5.2 41.3
11:55 1012 29.88 841 24.83 18.5 65.2 36 3.1 37.6
12:00 1012 29.88 841 24.83 19 66.3 36 4 39.1
12:05 1012 29.88 841 24.83 18.4 65.1 38 3.9 39.1
12:10 1012 29.88 841 24.83 17.2 63 39 3.5 38.2
12:15 1012 29.88 841 24.83 16.3 61.3 43 3.8 38.9
12:20 1012 29.88 841 24.83 16 60.8 45 4.3 39.8
12:25 1012 29.88 841 24.83 15.7 60.3 48 4.8 40.7
12:30 1012 29.88 841 24.83 14.7 58.4 50 4.4 39.9
12:35 1012 29.88 841 24.83 13 55.4 55 4.2 39.6
12:40 1012 29.88 841 24.83 12.2 53.9 57 3.9 39
12:45 1012 29.88 841 24.83 11.6 52.9 64 5.1 41.1
12:50 1012 29.88 841 24.83 10.7 51.3 65 4.5 40.2
12:55 1012 29.88 841 24.83 10.3 50.5 71 5.3 41.5
13:00 1012 29.88 841 24.83 10.4 50.7 69 5 40.9
13:05 1012 29.88 841 24.83 10.8 51.5 67 5 41.1
13:10 1012 29.88 841 24.83 11.5 52.6 61 4.2 39.5
13:15 1012 29.88 841 24.83 11.4 52.4 68 5.6 42.1
13:20 1012 29.88 841 24.83 11.4 52.6 63 4.8 40.6
13:25 1012 29.88 841 24.83 12.6 54.6 55 3.9 39
13:30 1012 29.88 841 24.83 13.6 56.5 51 3.6 38.5
13:35 1012 29.88 841 24.83 14.6 58.2 46 3.1 37.5
13:40 1012 29.88 841 24.83 15.2 59.3 43 2.7 36.8
13:45 1012 29.88 841 24.83 15.9 60.7 43 3.6 38.4
13:50 1012 29.88 841 24.83 15.9 60.6 42 3.2 37.7
13:55 1012 29.88 841 24.83 15.6 60.2 43 3.2 37.7
14:00 1012 29.88 841 24.83 15.7 60.3 44 3.5 38.3
14:05 1012 29.88 841 24.83 15.3 59.5 43 2.9 37.2
14:10 1012 29.88 841 24.83 15.2 59.4 40 2 35.6
14:15 1012 29.88 841 24.83 16.4 61.6 37 1.9 35.4
14:20 1012 29.88 841 24.83 17.3 63.1 34 1.6 34.8
14:25 1011 29.85 841 24.83 16.4 61.4 37 1.8 35.3
14:30 1011 29.85 841 24.83 16.8 62.2 34 0.9 33.6
14:35 1011 29.85 840 24.81 17.9 64.3 34 1.9 35.4
14:40 1011 29.85 840 24.81 18 64.4 34 1.9 35.4
14:45 1011 29.85 840 24.81 18.5 65.2 33 2 35.7
14:50 1011 29.85 840 24.81 18 64.4 32 1.4 34.5
14:55 1011 29.85 840 24.81 18.5 65.3 30 1 33.7
15:00 1011 29.85 840 24.81 18.9 66 30 1.2 34.1
15:05 1011 29.85 840 24.81 18.9 66 30 1.2 34.2
15:10 1011 29.85 840 24.81 19.5 67.1 31 2 35.5
15:15 1011 29.85 840 24.81 18.9 66.1 33 2.3 36.2
15:20 1011 29.85 840 24.81 18.4 65.1 32 1.7 35.1
15:25 1011 29.85 840 24.81 18.6 65.4 32 1.8 35.2
15:30 1011 29.85 840 24.81 18.3 64.9 32 1.5 34.6
15:35 1011 29.85 840 24.81 18.7 65.6 32 1.7 35.1
15:40 1011 29.85 840 24.81 18.3 64.9 31 1.1 34
15:45 1011 29.85 840 24.81 18.3 65 30 0.6 33
15:50 1011 29.85 840 24.81 18.9 66 29 0.4 32.7
15:55 1010 29.83 840 24.81 18.2 64.8 32 1.2 34.2
16:00 1010 29.83 840 24.81 18.8 65.8 30 0.9 33.7
16:05 1010 29.83 840 24.81 20 68.1 27 0.9 33.6
16:10 1010 29.83 840 24.81 19.5 67.1 29 1.3 34.4
16:15 1010 29.83 840 24.81 18.8 65.8 29 0.7 33.2
16:20 1010 29.83 840 24.81 18.5 65.3 28 -0.4 31.3
16:25 1010 29.83 840 24.81 18.3 64.9 31 0.8 33.5
16:30 1011 29.85 840 24.81 17.8 64 33 1.4 34.6
16:35 1011 29.85 840 24.81 15.7 60.2 48 4.7 40.5
16:40 1011 29.85 840 24.81 13.4 56.2 57 5.1 41.2
16:45 1011 29.85 840 24.81 12.4 54.2 59 4.7 40.4
16:50 1011 29.85 840 24.81 12.2 53.9 61 4.9 40.9
16:55 1011 29.85 840 24.81 12.3 54.2 65 6 42.8
17:00 1011 29.85 840 24.81 12.5 54.5 63 5.8 42.4
17:05 1011 29.85 840 24.81 13.2 55.7 56 4.7 40.4
17:10 1011 29.85 840 24.81 13.9 57 54 4.9 40.8
17:15 1011 29.85 840 24.81 14.2 57.6 52 4.6 40.3
17:20 1011 29.85 840 24.81 14.3 57.7 53 4.8 40.7
17:25 1011 29.85 840 24.81 14.9 58.7 50 4.5 40.1
17:30 1011 29.85 840 24.81 15.6 60.1 43 3.2 37.7
17:35 1011 29.85 840 24.81 16 60.9 43 3.5 38.3
17:40 1011 29.85 840 24.81 16.5 61.8 40 3.2 37.7
17:45 1011 29.85 840 24.81 17.8 64.1 37 3.1 37.5
17:50 1011 29.85 840 24.81 18 64.5 37 3.4 38.1
17:55 1011 29.85 840 24.81 17.4 63.3 38 3 37.3
18:00 1011 29.85 840 24.81 17.3 63.2 41 4 39.2
18:05 1011 29.85 840 24.81 16.2 61.1 41 3.1 37.6
18:10 1011 29.85 840 24.81 15.9 60.5 43 3.5 38.2
18:15 1011 29.85 840 24.81 15.5 59.8 45 3.7 38.6
18:20 1011 29.85 840 24.81 15.5 59.9 52 5.8 42.4
18:25 1011 29.85 840 24.81 15.2 59.3 54 5.9 42.6
18:30 1011 29.85 840 24.81 15 59.1 53 5.6 42.1
18:35 1011 29.85 840 24.81 15 58.9 54 5.8 42.5
18:40 1011 29.85 840 24.81 14.9 58.7 56 6.2 43.2
18:45 1011 29.85 840 24.81 14.8 58.6 57 6.4 43.5
18:50 1011 29.85 840 24.81 14.8 58.7 58 6.7 44.1
18:55 1011 29.85 841 24.83 14.7 58.5 57 6.5 43.7
19:00 1011 29.85 841 24.83 14.6 58.2 59 6.6 44
19:05 1011 29.85 841 24.83 14.5 58.2 61 7.2 45
19:10 1011 29.85 841 24.83 14.4 58 65 8.1 46.5
19:15 1011 29.85 841 24.83 13.9 57.1 72 9 48.3
19:20 1011 29.85 841 24.83 13.3 55.9 75 8.9 47.9
19:25 1011 29.85 841 24.83 13.1 55.5 75 8.7 47.7
19:30 1011 29.85 841 24.83 13 55.3 73 8.2 46.8
19:35 1011 29.85 841 24.83 12.8 55 77 8.8 47.9
19:40 1012 29.88 841 24.83 12.5 54.4 76 8.3 46.9
19:45 1012 29.88 841 24.83 11.8 53.3 79 8.3 46.9
19:50 1012 29.88 841 24.83 11.5 52.7 81 8.4 47.1
19:55 1012 29.88 841 24.83 11.4 52.5 83 8.6 47.4
20:00 1012 29.88 841 24.83 11.4 52.5 83 8.6 47.5
20:05 1012 29.88 841 24.83 11.4 52.5 85 9 48.2
20:10 1012 29.88 841 24.83 11 51.9 87 9 48.3
20:15 1011 29.85 841 24.83 10.9 51.5 86 8.7 47.6
20:20 1011 29.85 841 24.83 10.8 51.4 84 8.2 46.8
20:25 1011 29.85 841 24.83 10.8 51.5 85 8.4 47.1
20:30 1011 29.85 841 24.83 10.8 51.4 84 8.1 46.7
20:35 1011 29.85 840 24.81 10.9 51.7 83 8.2 46.8
20:40 1011 29.85 840 24.81 11.1 52 81 8 46.4
20:45 1011 29.85 840 24.81 10.9 51.7 80 7.7 45.9
20:50 1011 29.85 840 24.81 10.8 51.4 79 7.4 45.3
20:55 1011 29.85 840 24.81 10.7 51.3 80 7.4 45.3
21:00 1011 29.85 840 24.81 10.7 51.2 81 7.6 45.7
21:05 1011 29.85 840 24.81 10.6 51 83 7.8 46
21:10 1011 29.85 840 24.81 10.4 50.7 85 8 46.5
21:15 1011 29.85 840 24.81 10.2 50.4 85 7.9 46.2
21:20 1011 29.85 840 24.81 10.2 50.3 84 7.7 45.8
21:25 1011 29.85 840 24.81 10.3 50.6 84 7.8 46
21:30 1011 29.85 840 24.81 10.4 50.8 83 7.7 45.9
21:35 1011 29.85 841 24.83 10.4 50.6 83 7.6 45.6
21:40 1011 29.85 841 24.83 10.2 50.3 83 7.4 45.4
21:45 1011 29.85 841 24.83 10.1 50.2 82 7.3 45.1
21:50 1011 29.85 841 24.83 10 49.9 83 7.2 44.9
21:55 1011 29.85 841 24.83 9.9 49.8 78 6.2 43.1
22:00 1011 29.85 841 24.83 10 50.1 81 6.9 44.4
22:05 1011 29.85 840 24.81 9.9 49.8 80 6.6 43.9
22:10 1011 29.85 840 24.81 9.9 49.8 81 6.8 44.2
22:15 1011 29.85 840 24.81 9.8 49.6 82 6.9 44.4
22:20 1011 29.85 840 24.81 9.7 49.5 82 6.8 44.3
22:25 1011 29.85 840 24.81 9.6 49.3 82 6.8 44.2
22:30 1011 29.85 840 24.81 9.6 49.2 82 6.7 44.1
22:35 1011 29.85 840 24.81 9.4 48.9 83 6.7 44.1
22:40 1011 29.85 840 24.81 9.3 48.7 83 6.6 43.8
22:45 1011 29.85 841 24.83 9.5 49 80 6.1 43
22:50 1011 29.85 841 24.83 9.5 49.1 80 6.2 43.1
22:55 1011 29.85 841 24.83 9.4 49 80 6.1 43
23:00 1011 29.85 841 24.83 9.3 48.7 80 6.1 43
23:05 1011 29.85 841 24.83 9.3 48.8 79 5.9 42.6
23:10 1011 29.85 841 24.83 9.3 48.7 78 5.7 42.3
23:15 1011 29.85 841 24.83 9 48.3 80 5.8 42.5
23:20 1011 29.85 841 24.83 8.9 48 81 5.8 42.5
23:25 1011 29.85 841 24.83 8.7 47.6 83 6 42.9
23:30 1011 29.85 841 24.83 8.4 47.2 86 6.2 43.1
23:35 1011 29.85 841 24.83 8.2 46.8 84 5.7 42.2
23:40 1011 29.85 840 24.81 8.3 46.9 83 5.6 42
23:45 1011 29.85 840 24.81 8.3 47 86 6.1 42.9
23:50 1011 29.85 840 24.81 8 46.5 87 6 42.9
23:55 1011 29.85 840 24.81 8 46.3 87 6 42.7
24:00 1011 29.85 840 24.81 7.9 46.3 87 5.9 42.6